sensor_id;sensor_type;location;lat;lon;timestamp;P1;durP1;ratioP1;P2;durP2;ratioP2
26335;SDS011;14047;50.936;4.654;2022-10-26T00:01:30;6.72;;;2.70;;
26335;SDS011;14047;50.936;4.654;2022-10-26T00:03:56;6.85;;;2.72;;
26335;SDS011;14047;50.936;4.654;2022-10-26T00:06:22;6.20;;;2.70;;
26335;SDS011;14047;50.936;4.654;2022-10-26T00:08:49;10.07;;;3.28;;
26335;SDS011;14047;50.936;4.654;2022-10-26T00:11:16;16.45;;;3.15;;
26335;SDS011;14047;50.936;4.654;2022-10-26T00:13:43;11.10;;;3.13;;
26335;SDS011;14047;50.936;4.654;2022-10-26T00:16:28;12.00;;;2.90;;
26335;SDS011;14047;50.936;4.654;2022-10-26T00:18:54;12.50;;;2.88;;
26335;SDS011;14047;50.936;4.654;2022-10-26T00:21:19;15.30;;;3.40;;
26335;SDS011;14047;50.936;4.654;2022-10-26T00:23:45;6.75;;;2.40;;
26335;SDS011;14047;50.936;4.654;2022-10-26T00:26:10;10.90;;;3.15;;
26335;SDS011;14047;50.936;4.654;2022-10-26T00:28:36;7.65;;;2.70;;
26335;SDS011;14047;50.936;4.654;2022-10-26T00:31:03;8.82;;;2.70;;
26335;SDS011;14047;50.936;4.654;2022-10-26T00:33:30;15.40;;;2.80;;
26335;SDS011;14047;50.936;4.654;2022-10-26T00:35:57;4.75;;;2.53;;
26335;SDS011;14047;50.936;4.654;2022-10-26T00:38:22;7.13;;;2.53;;
26335;SDS011;14047;50.936;4.654;2022-10-26T00:40:48;8.50;;;2.70;;
26335;SDS011;14047;50.936;4.654;2022-10-26T00:43:15;11.07;;;2.78;;
26335;SDS011;14047;50.936;4.654;2022-10-26T00:45:58;6.95;;;2.15;;
26335;SDS011;14047;50.936;4.654;2022-10-26T00:48:31;8.05;;;2.20;;
26335;SDS011;14047;50.936;4.654;2022-10-26T00:51:00;12.20;;;2.65;;
26335;SDS011;14047;50.936;4.654;2022-10-26T00:53:28;6.45;;;2.40;;
26335;SDS011;14047;50.936;4.654;2022-10-26T00:55:56;14.32;;;3.15;;
26335;SDS011;14047;50.936;4.654;2022-10-26T00:58:22;11.25;;;2.80;;
26335;SDS011;14047;50.936;4.654;2022-10-26T01:00:48;11.15;;;2.55;;
26335;SDS011;14047;50.936;4.654;2022-10-26T01:03:15;8.07;;;2.25;;
26335;SDS011;14047;50.936;4.654;2022-10-26T01:05:42;9.80;;;2.65;;
26335;SDS011;14047;50.936;4.654;2022-10-26T01:08:10;11.02;;;2.88;;
26335;SDS011;14047;50.936;4.654;2022-10-26T01:10:37;8.60;;;2.90;;
26335;SDS011;14047;50.936;4.654;2022-10-26T01:13:05;7.70;;;2.92;;
26335;SDS011;14047;50.936;4.654;2022-10-26T01:15:41;11.07;;;2.70;;
26335;SDS011;14047;50.936;4.654;2022-10-26T01:18:15;9.30;;;2.58;;
26335;SDS011;14047;50.936;4.654;2022-10-26T01:29:49;13.25;;;2.40;;
26335;SDS011;14047;50.936;4.654;2022-10-26T01:32:26;6.35;;;2.55;;
26335;SDS011;14047;50.936;4.654;2022-10-26T01:37:41;9.93;;;2.70;;
26335;SDS011;14047;50.936;4.654;2022-10-26T01:40:18;8.15;;;2.38;;
26335;SDS011;14047;50.936;4.654;2022-10-26T01:42:50;9.18;;;2.47;;
26335;SDS011;14047;50.936;4.654;2022-10-26T01:45:18;7.90;;;1.98;;
26335;SDS011;14047;50.936;4.654;2022-10-26T01:47:45;9.63;;;2.45;;
26335;SDS011;14047;50.936;4.654;2022-10-26T01:50:12;8.77;;;2.20;;
26335;SDS011;14047;50.936;4.654;2022-10-26T01:52:38;7.25;;;2.03;;
26335;SDS011;14047;50.936;4.654;2022-10-26T01:55:50;9.80;;;1.95;;
26335;SDS011;14047;50.936;4.654;2022-10-26T01:58:07;5.25;;;2.03;;
26335;SDS011;14047;50.936;4.654;2022-10-26T02:06:40;8.23;;;2.00;;
26335;SDS011;14047;50.936;4.654;2022-10-26T02:09:14;6.43;;;1.98;;
26335;SDS011;14047;50.936;4.654;2022-10-26T02:11:47;12.85;;;2.97;;
26335;SDS011;14047;50.936;4.654;2022-10-26T02:14:18;6.80;;;2.33;;
26335;SDS011;14047;50.936;4.654;2022-10-26T02:16:53;6.05;;;1.98;;
26335;SDS011;14047;50.936;4.654;2022-10-26T02:19:42;8.88;;;1.88;;
26335;SDS011;14047;50.936;4.654;2022-10-26T02:22:27;6.90;;;2.17;;
26335;SDS011;14047;50.936;4.654;2022-10-26T02:25:00;7.57;;;1.90;;
26335;SDS011;14047;50.936;4.654;2022-10-26T02:27:33;8.63;;;2.00;;
26335;SDS011;14047;50.936;4.654;2022-10-26T02:30:02;5.60;;;2.13;;
26335;SDS011;14047;50.936;4.654;2022-10-26T02:32:29;3.30;;;1.65;;
26335;SDS011;14047;50.936;4.654;2022-10-26T02:34:59;8.02;;;1.90;;
26335;SDS011;14047;50.936;4.654;2022-10-26T02:37:27;8.20;;;2.28;;
26335;SDS011;14047;50.936;4.654;2022-10-26T02:39:54;7.18;;;2.08;;
26335;SDS011;14047;50.936;4.654;2022-10-26T02:42:22;7.90;;;2.03;;
26335;SDS011;14047;50.936;4.654;2022-10-26T02:44:53;7.10;;;1.92;;
26335;SDS011;14047;50.936;4.654;2022-10-26T02:47:22;6.10;;;1.83;;
26335;SDS011;14047;50.936;4.654;2022-10-26T02:49:50;4.97;;;1.92;;
26335;SDS011;14047;50.936;4.654;2022-10-26T02:55:29;6.53;;;2.00;;
26335;SDS011;14047;50.936;4.654;2022-10-26T02:58:05;10.43;;;1.70;;
26335;SDS011;14047;50.936;4.654;2022-10-26T03:00:38;3.95;;;2.00;;
26335;SDS011;14047;50.936;4.654;2022-10-26T03:03:06;10.07;;;2.40;;
26335;SDS011;14047;50.936;4.654;2022-10-26T03:05:31;9.35;;;2.67;;
26335;SDS011;14047;50.936;4.654;2022-10-26T03:07:57;7.57;;;1.67;;
26335;SDS011;14047;50.936;4.654;2022-10-26T03:10:24;7.72;;;1.77;;
26335;SDS011;14047;50.936;4.654;2022-10-26T03:12:50;5.63;;;1.70;;
26335;SDS011;14047;50.936;4.654;2022-10-26T03:15:17;4.13;;;1.85;;
26335;SDS011;14047;50.936;4.654;2022-10-26T03:17:42;8.02;;;1.83;;
26335;SDS011;14047;50.936;4.654;2022-10-26T03:20:08;11.70;;;1.60;;
26335;SDS011;14047;50.936;4.654;2022-10-26T03:22:35;7.05;;;1.73;;
26335;SDS011;14047;50.936;4.654;2022-10-26T03:25:01;11.18;;;1.60;;
26335;SDS011;14047;50.936;4.654;2022-10-26T03:27:27;8.57;;;1.80;;
26335;SDS011;14047;50.936;4.654;2022-10-26T03:29:52;4.20;;;1.35;;
26335;SDS011;14047;50.936;4.654;2022-10-26T03:32:18;6.82;;;1.73;;
26335;SDS011;14047;50.936;4.654;2022-10-26T03:34:44;4.30;;;1.55;;
26335;SDS011;14047;50.936;4.654;2022-10-26T03:37:10;7.68;;;2.00;;
26335;SDS011;14047;50.936;4.654;2022-10-26T03:39:35;4.40;;;1.23;;
26335;SDS011;14047;50.936;4.654;2022-10-26T03:42:01;3.67;;;1.40;;
26335;SDS011;14047;50.936;4.654;2022-10-26T03:44:26;3.65;;;1.15;;
26335;SDS011;14047;50.936;4.654;2022-10-26T03:46:52;3.03;;;1.30;;
26335;SDS011;14047;50.936;4.654;2022-10-26T03:49:18;3.88;;;1.55;;
26335;SDS011;14047;50.936;4.654;2022-10-26T03:51:43;5.22;;;1.48;;
26335;SDS011;14047;50.936;4.654;2022-10-26T03:54:09;2.40;;;1.27;;
26335;SDS011;14047;50.936;4.654;2022-10-26T03:56:34;4.88;;;1.33;;
26335;SDS011;14047;50.936;4.654;2022-10-26T03:59:00;2.85;;;1.45;;
26335;SDS011;14047;50.936;4.654;2022-10-26T04:01:26;5.68;;;1.30;;
26335;SDS011;14047;50.936;4.654;2022-10-26T04:03:51;4.22;;;1.10;;
26335;SDS011;14047;50.936;4.654;2022-10-26T04:06:17;4.03;;;1.30;;
26335;SDS011;14047;50.936;4.654;2022-10-26T04:08:42;4.35;;;1.10;;
26335;SDS011;14047;50.936;4.654;2022-10-26T04:11:08;4.82;;;1.50;;
26335;SDS011;14047;50.936;4.654;2022-10-26T04:13:33;4.22;;;1.10;;
26335;SDS011;14047;50.936;4.654;2022-10-26T04:15:59;4.80;;;1.25;;
26335;SDS011;14047;50.936;4.654;2022-10-26T04:18:25;5.15;;;1.55;;
26335;SDS011;14047;50.936;4.654;2022-10-26T04:20:50;2.53;;;1.20;;
26335;SDS011;14047;50.936;4.654;2022-10-26T04:23:16;5.22;;;1.17;;
26335;SDS011;14047;50.936;4.654;2022-10-26T04:25:43;4.97;;;1.27;;
26335;SDS011;14047;50.936;4.654;2022-10-26T04:28:09;5.78;;;1.35;;
26335;SDS011;14047;50.936;4.654;2022-10-26T04:30:36;5.88;;;1.42;;
26335;SDS011;14047;50.936;4.654;2022-10-26T04:33:03;3.20;;;1.08;;
26335;SDS011;14047;50.936;4.654;2022-10-26T04:35:29;3.35;;;1.20;;
26335;SDS011;14047;50.936;4.654;2022-10-26T04:37:56;3.55;;;1.15;;
26335;SDS011;14047;50.936;4.654;2022-10-26T04:40:26;5.43;;;1.10;;
26335;SDS011;14047;50.936;4.654;2022-10-26T04:42:52;7.95;;;1.55;;
26335;SDS011;14047;50.936;4.654;2022-10-26T04:45:18;3.95;;;1.42;;
26335;SDS011;14047;50.936;4.654;2022-10-26T04:47:44;6.32;;;1.50;;
26335;SDS011;14047;50.936;4.654;2022-10-26T04:50:10;3.25;;;1.25;;
26335;SDS011;14047;50.936;4.654;2022-10-26T04:52:36;4.20;;;1.80;;
26335;SDS011;14047;50.936;4.654;2022-10-26T04:55:02;6.82;;;1.42;;
26335;SDS011;14047;50.936;4.654;2022-10-26T04:57:30;6.68;;;1.80;;
26335;SDS011;14047;50.936;4.654;2022-10-26T04:59:57;2.35;;;1.20;;
26335;SDS011;14047;50.936;4.654;2022-10-26T05:02:23;3.10;;;1.00;;
26335;SDS011;14047;50.936;4.654;2022-10-26T05:04:48;9.02;;;1.67;;
26335;SDS011;14047;50.936;4.654;2022-10-26T05:07:14;5.85;;;1.40;;
26335;SDS011;14047;50.936;4.654;2022-10-26T05:09:40;9.20;;;1.60;;
26335;SDS011;14047;50.936;4.654;2022-10-26T05:12:05;5.63;;;1.58;;
26335;SDS011;14047;50.936;4.654;2022-10-26T05:14:31;4.18;;;1.63;;
26335;SDS011;14047;50.936;4.654;2022-10-26T05:16:57;4.53;;;1.60;;
26335;SDS011;14047;50.936;4.654;2022-10-26T05:19:22;10.68;;;2.17;;
26335;SDS011;14047;50.936;4.654;2022-10-26T05:21:48;3.15;;;1.20;;
26335;SDS011;14047;50.936;4.654;2022-10-26T05:24:13;3.00;;;1.48;;
26335;SDS011;14047;50.936;4.654;2022-10-26T05:26:39;6.43;;;2.10;;
26335;SDS011;14047;50.936;4.654;2022-10-26T05:29:04;10.52;;;1.60;;
26335;SDS011;14047;50.936;4.654;2022-10-26T05:31:30;4.35;;;1.48;;
26335;SDS011;14047;50.936;4.654;2022-10-26T05:33:56;3.65;;;1.30;;
26335;SDS011;14047;50.936;4.654;2022-10-26T05:36:21;8.80;;;1.90;;
26335;SDS011;14047;50.936;4.654;2022-10-26T05:38:47;6.47;;;1.30;;
26335;SDS011;14047;50.936;4.654;2022-10-26T05:41:13;2.83;;;1.23;;
26335;SDS011;14047;50.936;4.654;2022-10-26T05:43:38;4.90;;;1.33;;
26335;SDS011;14047;50.936;4.654;2022-10-26T05:46:04;7.40;;;1.65;;
26335;SDS011;14047;50.936;4.654;2022-10-26T05:48:29;7.72;;;1.55;;
26335;SDS011;14047;50.936;4.654;2022-10-26T05:50:59;7.63;;;1.73;;
26335;SDS011;14047;50.936;4.654;2022-10-26T05:53:25;4.55;;;1.60;;
26335;SDS011;14047;50.936;4.654;2022-10-26T05:55:52;5.72;;;1.30;;
26335;SDS011;14047;50.936;4.654;2022-10-26T05:58:19;4.03;;;1.30;;
26335;SDS011;14047;50.936;4.654;2022-10-26T06:05:51;13.02;;;2.10;;
26335;SDS011;14047;50.936;4.654;2022-10-26T06:08:19;7.55;;;1.73;;
26335;SDS011;14047;50.936;4.654;2022-10-26T06:10:47;5.43;;;1.75;;
26335;SDS011;14047;50.936;4.654;2022-10-26T06:13:13;7.05;;;1.77;;
26335;SDS011;14047;50.936;4.654;2022-10-26T06:18:35;4.65;;;1.95;;
26335;SDS011;14047;50.936;4.654;2022-10-26T06:32:21;5.85;;;1.73;;
26335;SDS011;14047;50.936;4.654;2022-10-26T06:34:49;6.95;;;1.85;;
26335;SDS011;14047;50.936;4.654;2022-10-26T06:37:17;7.20;;;1.85;;
26335;SDS011;14047;50.936;4.654;2022-10-26T06:39:44;5.60;;;1.65;;
26335;SDS011;14047;50.936;4.654;2022-10-26T06:42:12;5.93;;;1.73;;
26335;SDS011;14047;50.936;4.654;2022-10-26T06:44:38;7.53;;;1.90;;
26335;SDS011;14047;50.936;4.654;2022-10-26T06:49:40;5.80;;;1.98;;
26335;SDS011;14047;50.936;4.654;2022-10-26T06:54:59;3.22;;;1.48;;
26335;SDS011;14047;50.936;4.654;2022-10-26T06:57:31;5.22;;;1.77;;
26335;SDS011;14047;50.936;4.654;2022-10-26T07:00:05;6.47;;;1.70;;
26335;SDS011;14047;50.936;4.654;2022-10-26T07:02:44;7.95;;;1.88;;
26335;SDS011;14047;50.936;4.654;2022-10-26T07:05:10;14.05;;;1.90;;
26335;SDS011;14047;50.936;4.654;2022-10-26T07:07:37;8.95;;;1.77;;
26335;SDS011;14047;50.936;4.654;2022-10-26T07:10:10;5.68;;;1.70;;
26335;SDS011;14047;50.936;4.654;2022-10-26T07:12:36;10.68;;;2.25;;
26335;SDS011;14047;50.936;4.654;2022-10-26T07:15:03;13.07;;;1.90;;
26335;SDS011;14047;50.936;4.654;2022-10-26T07:17:29;8.35;;;1.92;;
26335;SDS011;14047;50.936;4.654;2022-10-26T07:19:55;6.80;;;2.35;;
26335;SDS011;14047;50.936;4.654;2022-10-26T07:22:21;9.93;;;2.13;;
26335;SDS011;14047;50.936;4.654;2022-10-26T07:24:47;5.70;;;1.80;;
26335;SDS011;14047;50.936;4.654;2022-10-26T07:27:16;8.25;;;1.90;;
26335;SDS011;14047;50.936;4.654;2022-10-26T07:29:43;3.92;;;1.80;;
26335;SDS011;14047;50.936;4.654;2022-10-26T07:32:09;6.22;;;1.98;;
26335;SDS011;14047;50.936;4.654;2022-10-26T07:34:35;5.32;;;1.98;;
26335;SDS011;14047;50.936;4.654;2022-10-26T07:37:00;11.02;;;2.00;;
26335;SDS011;14047;50.936;4.654;2022-10-26T07:39:26;7.60;;;2.05;;
26335;SDS011;14047;50.936;4.654;2022-10-26T07:41:52;8.23;;;2.10;;
26335;SDS011;14047;50.936;4.654;2022-10-26T07:44:17;13.85;;;2.20;;
26335;SDS011;14047;50.936;4.654;2022-10-26T07:46:43;8.05;;;2.20;;
26335;SDS011;14047;50.936;4.654;2022-10-26T07:49:09;6.70;;;2.10;;
26335;SDS011;14047;50.936;4.654;2022-10-26T07:51:34;8.70;;;2.03;;
26335;SDS011;14047;50.936;4.654;2022-10-26T07:54:00;10.15;;;2.17;;
26335;SDS011;14047;50.936;4.654;2022-10-26T07:56:26;7.15;;;2.08;;
26335;SDS011;14047;50.936;4.654;2022-10-26T07:58:52;13.52;;;2.58;;
26335;SDS011;14047;50.936;4.654;2022-10-26T08:01:18;5.95;;;2.03;;
26335;SDS011;14047;50.936;4.654;2022-10-26T08:03:44;6.78;;;2.17;;
26335;SDS011;14047;50.936;4.654;2022-10-26T08:06:10;9.02;;;3.33;;
26335;SDS011;14047;50.936;4.654;2022-10-26T08:08:36;7.85;;;2.47;;
26335;SDS011;14047;50.936;4.654;2022-10-26T08:11:02;9.38;;;2.15;;
26335;SDS011;14047;50.936;4.654;2022-10-26T08:13:28;4.32;;;1.73;;
26335;SDS011;14047;50.936;4.654;2022-10-26T08:15:57;6.82;;;2.15;;
26335;SDS011;14047;50.936;4.654;2022-10-26T08:18:23;5.97;;;2.20;;
26335;SDS011;14047;50.936;4.654;2022-10-26T08:20:49;10.60;;;2.08;;
26335;SDS011;14047;50.936;4.654;2022-10-26T08:23:15;4.95;;;2.35;;
26335;SDS011;14047;50.936;4.654;2022-10-26T08:25:40;11.48;;;3.17;;
26335;SDS011;14047;50.936;4.654;2022-10-26T08:28:06;10.63;;;1.98;;
26335;SDS011;14047;50.936;4.654;2022-10-26T08:30:32;8.85;;;2.65;;
26335;SDS011;14047;50.936;4.654;2022-10-26T08:33:02;10.65;;;1.88;;
26335;SDS011;14047;50.936;4.654;2022-10-26T08:35:29;5.65;;;1.80;;
26335;SDS011;14047;50.936;4.654;2022-10-26T08:37:55;9.30;;;2.17;;
26335;SDS011;14047;50.936;4.654;2022-10-26T08:40:23;4.90;;;1.88;;
26335;SDS011;14047;50.936;4.654;2022-10-26T08:43:14;7.80;;;1.83;;
26335;SDS011;14047;50.936;4.654;2022-10-26T08:45:57;4.05;;;1.83;;
26335;SDS011;14047;50.936;4.654;2022-10-26T08:48:28;7.85;;;2.10;;
26335;SDS011;14047;50.936;4.654;2022-10-26T08:51:01;8.90;;;2.05;;
26335;SDS011;14047;50.936;4.654;2022-10-26T08:53:52;6.30;;;1.70;;
26335;SDS011;14047;50.936;4.654;2022-10-26T08:56:45;5.40;;;1.40;;
26335;SDS011;14047;50.936;4.654;2022-10-26T08:59:23;7.68;;;2.03;;
26335;SDS011;14047;50.936;4.654;2022-10-26T09:02:07;8.32;;;1.70;;
26335;SDS011;14047;50.936;4.654;2022-10-26T09:04:36;9.65;;;1.75;;
26335;SDS011;14047;50.936;4.654;2022-10-26T09:13:19;7.88;;;1.67;;
26335;SDS011;14047;50.936;4.654;2022-10-26T09:26:55;3.50;;;1.27;;
26335;SDS011;14047;50.936;4.654;2022-10-26T09:29:32;4.05;;;1.25;;
26335;SDS011;14047;50.936;4.654;2022-10-26T09:32:02;6.00;;;1.25;;
26335;SDS011;14047;50.936;4.654;2022-10-26T09:34:33;7.13;;;1.30;;
26335;SDS011;14047;50.936;4.654;2022-10-26T09:37:10;4.50;;;1.20;;
26335;SDS011;14047;50.936;4.654;2022-10-26T09:39:45;2.55;;;0.85;;
26335;SDS011;14047;50.936;4.654;2022-10-26T09:47:56;2.67;;;1.08;;
26335;SDS011;14047;50.936;4.654;2022-10-26T09:50:39;4.30;;;1.17;;
26335;SDS011;14047;50.936;4.654;2022-10-26T09:53:09;11.80;;;1.52;;
26335;SDS011;14047;50.936;4.654;2022-10-26T09:55:38;4.15;;;1.10;;
26335;SDS011;14047;50.936;4.654;2022-10-26T09:58:14;7.05;;;1.33;;
26335;SDS011;14047;50.936;4.654;2022-10-26T10:00:45;5.35;;;1.15;;
26335;SDS011;14047;50.936;4.654;2022-10-26T10:03:24;5.70;;;1.40;;
26335;SDS011;14047;50.936;4.654;2022-10-26T10:08:39;2.95;;;1.00;;
26335;SDS011;14047;50.936;4.654;2022-10-26T10:11:12;4.47;;;1.30;;
26335;SDS011;14047;50.936;4.654;2022-10-26T10:13:42;4.78;;;1.17;;
26335;SDS011;14047;50.936;4.654;2022-10-26T10:16:28;6.13;;;1.60;;
26335;SDS011;14047;50.936;4.654;2022-10-26T10:18:54;5.47;;;1.08;;
26335;SDS011;14047;50.936;4.654;2022-10-26T10:21:43;5.75;;;1.02;;
26335;SDS011;14047;50.936;4.654;2022-10-26T10:27:04;9.48;;;1.40;;
26335;SDS011;14047;50.936;4.654;2022-10-26T10:29:41;5.00;;;1.00;;
26335;SDS011;14047;50.936;4.654;2022-10-26T10:32:13;10.35;;;1.35;;
26335;SDS011;14047;50.936;4.654;2022-10-26T10:34:41;9.13;;;1.20;;
26335;SDS011;14047;50.936;4.654;2022-10-26T10:37:15;4.97;;;1.30;;
26335;SDS011;14047;50.936;4.654;2022-10-26T10:39:47;3.70;;;1.20;;
26335;SDS011;14047;50.936;4.654;2022-10-26T10:42:20;6.13;;;1.13;;
26335;SDS011;14047;50.936;4.654;2022-10-26T10:44:51;5.93;;;1.25;;
26335;SDS011;14047;50.936;4.654;2022-10-26T10:47:28;3.78;;;1.15;;
26335;SDS011;14047;50.936;4.654;2022-10-26T10:49:58;2.88;;;0.98;;
26335;SDS011;14047;50.936;4.654;2022-10-26T10:52:27;6.45;;;2.03;;
26335;SDS011;14047;50.936;4.654;2022-10-26T10:54:58;4.82;;;1.15;;
26335;SDS011;14047;50.936;4.654;2022-10-26T11:00:35;5.13;;;1.10;;
26335;SDS011;14047;50.936;4.654;2022-10-26T11:08:29;6.10;;;1.10;;
26335;SDS011;14047;50.936;4.654;2022-10-26T11:11:01;7.95;;;1.42;;
26335;SDS011;14047;50.936;4.654;2022-10-26T11:13:39;7.15;;;1.40;;
26335;SDS011;14047;50.936;4.654;2022-10-26T11:16:21;2.08;;;0.82;;
26335;SDS011;14047;50.936;4.654;2022-10-26T11:18:57;4.68;;;1.10;;
26335;SDS011;14047;50.936;4.654;2022-10-26T11:21:27;7.38;;;1.10;;
26335;SDS011;14047;50.936;4.654;2022-10-26T11:23:56;7.03;;;1.45;;
26335;SDS011;14047;50.936;4.654;2022-10-26T11:26:50;5.75;;;1.08;;
26335;SDS011;14047;50.936;4.654;2022-10-26T11:32:22;2.85;;;0.95;;
26335;SDS011;14047;50.936;4.654;2022-10-26T11:43:13;5.57;;;1.05;;
26335;SDS011;14047;50.936;4.654;2022-10-26T11:45:56;3.85;;;1.00;;
26335;SDS011;14047;50.936;4.654;2022-10-26T11:51:14;10.57;;;1.35;;
26335;SDS011;14047;50.936;4.654;2022-10-26T11:54:00;5.22;;;0.85;;
26335;SDS011;14047;50.936;4.654;2022-10-26T11:56:37;3.38;;;0.98;;
26335;SDS011;14047;50.936;4.654;2022-10-26T11:59:12;3.38;;;0.90;;
26335;SDS011;14047;50.936;4.654;2022-10-26T12:01:46;7.25;;;1.10;;
26335;SDS011;14047;50.936;4.654;2022-10-26T12:04:15;4.88;;;1.20;;
26335;SDS011;14047;50.936;4.654;2022-10-26T12:06:43;4.82;;;1.08;;
26335;SDS011;14047;50.936;4.654;2022-10-26T12:09:18;5.85;;;1.05;;
26335;SDS011;14047;50.936;4.654;2022-10-26T12:11:56;5.35;;;0.90;;
26335;SDS011;14047;50.936;4.654;2022-10-26T12:19:45;6.20;;;1.52;;
26335;SDS011;14047;50.936;4.654;2022-10-26T12:22:13;1.60;;;0.82;;
26335;SDS011;14047;50.936;4.654;2022-10-26T12:24:42;5.53;;;0.80;;
26335;SDS011;14047;50.936;4.654;2022-10-26T12:27:33;6.53;;;0.98;;
26335;SDS011;14047;50.936;4.654;2022-10-26T12:35:42;3.22;;;1.00;;
26335;SDS011;14047;50.936;4.654;2022-10-26T12:48:48;5.00;;;1.13;;
26335;SDS011;14047;50.936;4.654;2022-10-26T12:54:06;5.68;;;1.00;;
26335;SDS011;14047;50.936;4.654;2022-10-26T12:56:50;1.92;;;0.80;;
26335;SDS011;14047;50.936;4.654;2022-10-26T12:59:23;5.93;;;1.40;;
26335;SDS011;14047;50.936;4.654;2022-10-26T13:08:16;5.13;;;0.77;;
26335;SDS011;14047;50.936;4.654;2022-10-26T13:10:45;4.13;;;1.02;;
26335;SDS011;14047;50.936;4.654;2022-10-26T13:13:27;2.55;;;0.82;;
26335;SDS011;14047;50.936;4.654;2022-10-26T13:15:55;4.57;;;1.00;;
26335;SDS011;14047;50.936;4.654;2022-10-26T13:18:22;11.10;;;1.48;;
26335;SDS011;14047;50.936;4.654;2022-10-26T13:23:28;5.45;;;1.20;;
26335;SDS011;14047;50.936;4.654;2022-10-26T13:31:02;2.33;;;1.08;;
26335;SDS011;14047;50.936;4.654;2022-10-26T13:33:50;4.97;;;0.82;;
26335;SDS011;14047;50.936;4.654;2022-10-26T13:38:50;4.68;;;0.80;;
26335;SDS011;14047;50.936;4.654;2022-10-26T13:41:20;7.20;;;1.08;;
26335;SDS011;14047;50.936;4.654;2022-10-26T13:43:52;6.45;;;0.80;;
26335;SDS011;14047;50.936;4.654;2022-10-26T13:46:23;5.70;;;1.13;;
26335;SDS011;14047;50.936;4.654;2022-10-26T13:48:52;5.72;;;1.00;;
26335;SDS011;14047;50.936;4.654;2022-10-26T13:51:23;3.60;;;0.82;;
26335;SDS011;14047;50.936;4.654;2022-10-26T13:53:55;9.68;;;1.30;;
26335;SDS011;14047;50.936;4.654;2022-10-26T13:56:26;4.05;;;0.90;;
26335;SDS011;14047;50.936;4.654;2022-10-26T13:59:17;3.67;;;0.90;;
26335;SDS011;14047;50.936;4.654;2022-10-26T14:01:42;3.88;;;0.90;;
26335;SDS011;14047;50.936;4.654;2022-10-26T14:04:14;5.72;;;0.90;;
26335;SDS011;14047;50.936;4.654;2022-10-26T14:06:42;8.82;;;1.20;;
26335;SDS011;14047;50.936;4.654;2022-10-26T14:09:14;5.65;;;0.93;;
26335;SDS011;14047;50.936;4.654;2022-10-26T14:11:43;5.00;;;1.00;;
26335;SDS011;14047;50.936;4.654;2022-10-26T14:14:34;4.20;;;0.85;;
26335;SDS011;14047;50.936;4.654;2022-10-26T14:17:01;5.38;;;1.08;;
26335;SDS011;14047;50.936;4.654;2022-10-26T14:19:29;3.47;;;0.90;;
26335;SDS011;14047;50.936;4.654;2022-10-26T14:21:59;6.95;;;1.10;;
26335;SDS011;14047;50.936;4.654;2022-10-26T14:24:26;4.50;;;0.93;;
26335;SDS011;14047;50.936;4.654;2022-10-26T14:26:59;5.97;;;0.90;;
26335;SDS011;14047;50.936;4.654;2022-10-26T14:29:26;5.88;;;1.00;;
26335;SDS011;14047;50.936;4.654;2022-10-26T14:31:55;7.28;;;0.90;;
26335;SDS011;14047;50.936;4.654;2022-10-26T14:34:21;7.80;;;0.93;;
26335;SDS011;14047;50.936;4.654;2022-10-26T14:39:27;4.15;;;0.93;;
26335;SDS011;14047;50.936;4.654;2022-10-26T14:41:58;6.20;;;1.00;;
26335;SDS011;14047;50.936;4.654;2022-10-26T14:44:27;5.78;;;1.30;;
26335;SDS011;14047;50.936;4.654;2022-10-26T14:46:54;4.35;;;0.90;;
26335;SDS011;14047;50.936;4.654;2022-10-26T14:49:24;3.60;;;0.90;;
26335;SDS011;14047;50.936;4.654;2022-10-26T14:51:58;9.05;;;1.10;;
26335;SDS011;14047;50.936;4.654;2022-10-26T14:54:30;2.28;;;0.80;;
26335;SDS011;14047;50.936;4.654;2022-10-26T14:56:57;6.15;;;0.98;;
26335;SDS011;14047;50.936;4.654;2022-10-26T14:59:27;5.75;;;1.23;;
26335;SDS011;14047;50.936;4.654;2022-10-26T15:01:56;1.48;;;0.73;;
26335;SDS011;14047;50.936;4.654;2022-10-26T15:04:35;3.75;;;0.98;;
26335;SDS011;14047;50.936;4.654;2022-10-26T15:12:36;6.00;;;0.93;;
26335;SDS011;14047;50.936;4.654;2022-10-26T15:17:41;3.55;;;0.95;;
26335;SDS011;14047;50.936;4.654;2022-10-26T15:20:22;2.55;;;0.93;;
26335;SDS011;14047;50.936;4.654;2022-10-26T15:22:58;6.35;;;1.17;;
26335;SDS011;14047;50.936;4.654;2022-10-26T15:25:26;11.07;;;1.83;;
26335;SDS011;14047;50.936;4.654;2022-10-26T15:27:54;8.13;;;1.02;;
26335;SDS011;14047;50.936;4.654;2022-10-26T15:30:57;6.82;;;1.00;;
26335;SDS011;14047;50.936;4.654;2022-10-26T15:33:39;5.05;;;0.80;;
26335;SDS011;14047;50.936;4.654;2022-10-26T15:38:35;8.48;;;1.50;;
26335;SDS011;14047;50.936;4.654;2022-10-26T15:41:01;6.18;;;1.00;;
26335;SDS011;14047;50.936;4.654;2022-10-26T15:43:28;4.38;;;1.05;;
26335;SDS011;14047;50.936;4.654;2022-10-26T15:45:53;6.05;;;1.17;;
26335;SDS011;14047;50.936;4.654;2022-10-26T15:48:27;5.10;;;0.95;;
26335;SDS011;14047;50.936;4.654;2022-10-26T15:50:55;4.32;;;1.00;;
26335;SDS011;14047;50.936;4.654;2022-10-26T15:53:22;5.45;;;0.88;;
26335;SDS011;14047;50.936;4.654;2022-10-26T15:55:53;4.30;;;0.95;;
26335;SDS011;14047;50.936;4.654;2022-10-26T15:58:21;5.97;;;1.10;;
26335;SDS011;14047;50.936;4.654;2022-10-26T16:00:47;6.32;;;1.08;;
26335;SDS011;14047;50.936;4.654;2022-10-26T16:03:14;6.72;;;1.33;;
26335;SDS011;14047;50.936;4.654;2022-10-26T16:05:43;3.00;;;0.88;;
26335;SDS011;14047;50.936;4.654;2022-10-26T16:08:10;7.80;;;1.25;;
26335;SDS011;14047;50.936;4.654;2022-10-26T16:10:39;8.75;;;2.63;;
26335;SDS011;14047;50.936;4.654;2022-10-26T16:13:05;5.13;;;1.10;;
26335;SDS011;14047;50.936;4.654;2022-10-26T16:15:36;2.58;;;1.02;;
26335;SDS011;14047;50.936;4.654;2022-10-26T16:18:02;3.10;;;1.30;;
26335;SDS011;14047;50.936;4.654;2022-10-26T16:20:28;8.32;;;1.10;;
26335;SDS011;14047;50.936;4.654;2022-10-26T16:22:54;8.30;;;1.38;;
26335;SDS011;14047;50.936;4.654;2022-10-26T16:25:21;5.95;;;1.02;;
26335;SDS011;14047;50.936;4.654;2022-10-26T16:27:49;7.45;;;1.33;;
26335;SDS011;14047;50.936;4.654;2022-10-26T16:30:15;8.48;;;1.73;;
26335;SDS011;14047;50.936;4.654;2022-10-26T16:32:41;4.18;;;1.40;;
26335;SDS011;14047;50.936;4.654;2022-10-26T16:35:08;4.93;;;1.52;;
26335;SDS011;14047;50.936;4.654;2022-10-26T16:37:34;7.93;;;2.10;;
26335;SDS011;14047;50.936;4.654;2022-10-26T16:40:00;4.50;;;1.42;;
26335;SDS011;14047;50.936;4.654;2022-10-26T16:42:26;6.72;;;1.10;;
26335;SDS011;14047;50.936;4.654;2022-10-26T16:44:52;6.88;;;1.30;;
26335;SDS011;14047;50.936;4.654;2022-10-26T16:47:18;8.13;;;1.70;;
26335;SDS011;14047;50.936;4.654;2022-10-26T16:49:44;5.78;;;1.42;;
26335;SDS011;14047;50.936;4.654;2022-10-26T16:52:10;7.22;;;1.25;;
26335;SDS011;14047;50.936;4.654;2022-10-26T16:54:36;9.00;;;1.60;;
26335;SDS011;14047;50.936;4.654;2022-10-26T16:57:02;11.20;;;1.38;;
26335;SDS011;14047;50.936;4.654;2022-10-26T16:59:28;6.07;;;1.58;;
26335;SDS011;14047;50.936;4.654;2022-10-26T17:01:53;7.95;;;1.38;;
26335;SDS011;14047;50.936;4.654;2022-10-26T17:04:19;9.30;;;1.33;;
26335;SDS011;14047;50.936;4.654;2022-10-26T17:06:44;6.53;;;1.08;;
26335;SDS011;14047;50.936;4.654;2022-10-26T17:09:10;7.78;;;1.10;;
26335;SDS011;14047;50.936;4.654;2022-10-26T17:11:36;7.45;;;1.40;;
26335;SDS011;14047;50.936;4.654;2022-10-26T17:14:01;6.47;;;1.30;;
26335;SDS011;14047;50.936;4.654;2022-10-26T17:16:27;7.97;;;1.17;;
26335;SDS011;14047;50.936;4.654;2022-10-26T17:18:53;6.20;;;1.67;;
26335;SDS011;14047;50.936;4.654;2022-10-26T17:21:19;7.45;;;1.63;;
26335;SDS011;14047;50.936;4.654;2022-10-26T17:23:55;6.13;;;1.70;;
26335;SDS011;14047;50.936;4.654;2022-10-26T17:26:21;5.85;;;2.00;;
26335;SDS011;14047;50.936;4.654;2022-10-26T17:28:53;5.35;;;1.48;;
26335;SDS011;14047;50.936;4.654;2022-10-26T17:31:20;7.10;;;1.45;;